sensor_id;sensor_type;location;lat;lon;timestamp;pressure;altitude;pressure_sealevel;temperature;humidity
19576;BME280;41589;51.196;7.074;2023-04-09T00:04:21;99855.69;;;8.36;100.00
19576;BME280;41589;51.196;7.074;2023-04-09T00:09:23;99854.59;;;8.30;100.00
19576;BME280;41589;51.196;7.074;2023-04-09T00:14:25;99848.94;;;8.34;100.00
19576;BME280;41589;51.196;7.074;2023-04-09T00:19:26;99848.50;;;8.35;100.00
19576;BME280;41589;51.196;7.074;2023-04-09T00:24:27;99845.19;;;8.40;100.00
19576;BME280;41589;51.196;7.074;2023-04-09T00:29:28;99844.81;;;8.38;100.00
19576;BME280;41589;51.196;7.074;2023-04-09T00:34:29;99839.88;;;8.46;100.00
19576;BME280;41589;51.196;7.074;2023-04-09T00:39:30;99840.44;;;8.37;100.00
19576;BME280;41589;51.196;7.074;2023-04-09T00:44:30;99831.34;;;8.30;100.00
19576;BME280;41589;51.196;7.074;2023-04-09T00:49:32;99826.97;;;8.29;100.00
19576;BME280;41589;51.196;7.074;2023-04-09T00:54:33;99837.91;;;8.23;100.00
19576;BME280;41589;51.196;7.074;2023-04-09T00:59:37;99829.09;;;8.21;100.00
19576;BME280;41589;51.196;7.074;2023-04-09T01:04:41;99836.72;;;8.21;100.00
19576;BME280;41589;51.196;7.074;2023-04-09T01:09:49;99835.63;;;8.15;100.00
19576;BME280;41589;51.196;7.074;2023-04-09T01:30:52;99823.91;;;7.76;100.00
19576;BME280;41589;51.196;7.074;2023-04-09T01:35:57;99823.63;;;7.71;100.00
19576;BME280;41589;51.196;7.074;2023-04-09T01:41:18;99823.66;;;7.67;100.00
19576;BME280;41589;51.196;7.074;2023-04-09T01:46:21;99825.81;;;7.60;100.00
19576;BME280;41589;51.196;7.074;2023-04-09T01:51:23;99830.63;;;7.59;100.00
19576;BME280;41589;51.196;7.074;2023-04-09T01:56:24;99837.38;;;7.62;100.00
19576;BME280;41589;51.196;7.074;2023-04-09T02:01:52;99834.56;;;7.62;100.00
19576;BME280;41589;51.196;7.074;2023-04-09T02:07:04;99826.16;;;7.62;100.00
19576;BME280;41589;51.196;7.074;2023-04-09T02:12:09;99828.03;;;7.68;100.00
19576;BME280;41589;51.196;7.074;2023-04-09T02:17:14;99823.72;;;7.64;100.00
19576;BME280;41589;51.196;7.074;2023-04-09T02:22:15;99810.16;;;7.62;100.00
19576;BME280;41589;51.196;7.074;2023-04-09T02:27:16;99812.63;;;7.57;100.00
19576;BME280;41589;51.196;7.074;2023-04-09T02:32:17;99807.94;;;7.50;100.00
19576;BME280;41589;51.196;7.074;2023-04-09T02:37:18;99812.44;;;7.44;100.00
19576;BME280;41589;51.196;7.074;2023-04-09T02:42:20;99803.75;;;7.38;100.00
19576;BME280;41589;51.196;7.074;2023-04-09T02:47:25;99802.69;;;7.29;100.00
19576;BME280;41589;51.196;7.074;2023-04-09T02:52:26;99797.88;;;7.29;100.00
19576;BME280;41589;51.196;7.074;2023-04-09T02:57:30;99798.84;;;7.19;100.00
19576;BME280;41589;51.196;7.074;2023-04-09T03:02:32;99790.53;;;7.12;100.00
19576;BME280;41589;51.196;7.074;2023-04-09T03:07:33;99786.59;;;7.09;100.00
19576;BME280;41589;51.196;7.074;2023-04-09T03:12:34;99775.59;;;6.95;100.00
19576;BME280;41589;51.196;7.074;2023-04-09T03:17:38;99780.41;;;6.94;100.00
19576;BME280;41589;51.196;7.074;2023-04-09T03:22:39;99784.38;;;6.97;100.00
19576;BME280;41589;51.196;7.074;2023-04-09T03:28:04;99781.09;;;7.02;100.00
19576;BME280;41589;51.196;7.074;2023-04-09T03:33:26;99776.94;;;6.87;100.00
19576;BME280;41589;51.196;7.074;2023-04-09T03:38:29;99776.06;;;6.90;100.00
19576;BME280;41589;51.196;7.074;2023-04-09T03:43:30;99784.53;;;6.86;100.00
19576;BME280;41589;51.196;7.074;2023-04-09T03:48:30;99776.66;;;6.78;100.00
19576;BME280;41589;51.196;7.074;2023-04-09T03:53:32;99778.53;;;6.84;100.00
19576;BME280;41589;51.196;7.074;2023-04-09T03:58:37;99772.56;;;6.86;100.00
19576;BME280;41589;51.196;7.074;2023-04-09T04:03:38;99772.66;;;6.79;100.00
19576;BME280;41589;51.196;7.074;2023-04-09T04:08:46;99769.78;;;6.82;100.00
19576;BME280;41589;51.196;7.074;2023-04-09T04:13:48;99777.38;;;6.82;100.00
19576;BME280;41589;51.196;7.074;2023-04-09T04:18:48;99774.59;;;6.82;100.00
19576;BME280;41589;51.196;7.074;2023-04-09T04:23:50;99781.03;;;6.79;100.00
19576;BME280;41589;51.196;7.074;2023-04-09T04:28:56;99772.28;;;6.77;100.00
19576;BME280;41589;51.196;7.074;2023-04-09T04:34:08;99772.66;;;6.79;100.00
19576;BME280;41589;51.196;7.074;2023-04-09T04:39:08;99779.09;;;6.76;100.00
19576;BME280;41589;51.196;7.074;2023-04-09T04:44:30;99774.75;;;6.71;100.00
19576;BME280;41589;51.196;7.074;2023-04-09T04:49:40;99778.34;;;6.72;100.00
19576;BME280;41589;51.196;7.074;2023-04-09T04:54:42;99769.50;;;6.73;100.00
19576;BME280;41589;51.196;7.074;2023-04-09T04:59:45;99782.28;;;6.74;100.00
19576;BME280;41589;51.196;7.074;2023-04-09T05:04:50;99787.84;;;6.78;100.00
19576;BME280;41589;51.196;7.074;2023-04-09T05:09:53;99779.03;;;6.79;100.00
19576;BME280;41589;51.196;7.074;2023-04-09T05:14:53;99788.91;;;6.87;100.00
19576;BME280;41589;51.196;7.074;2023-04-09T05:19:54;99781.78;;;6.83;100.00
19576;BME280;41589;51.196;7.074;2023-04-09T05:25:03;99781.31;;;6.88;100.00
19576;BME280;41589;51.196;7.074;2023-04-09T05:30:05;99787.53;;;6.99;100.00
19576;BME280;41589;51.196;7.074;2023-04-09T05:35:07;99786.59;;;7.09;100.00
19576;BME280;41589;51.196;7.074;2023-04-09T05:40:13;99788.97;;;7.11;100.00
19576;BME280;41589;51.196;7.074;2023-04-09T05:45:14;99795.09;;;7.29;100.00
19576;BME280;41589;51.196;7.074;2023-04-09T05:50:22;99797.19;;;7.48;100.00
19576;BME280;41589;51.196;7.074;2023-04-09T05:55:25;99796.69;;;7.53;100.00
19576;BME280;41589;51.196;7.074;2023-04-09T06:00:31;99803.25;;;7.67;100.00
19576;BME280;41589;51.196;7.074;2023-04-09T06:05:32;99797.03;;;7.79;100.00
19576;BME280;41589;51.196;7.074;2023-04-09T06:10:32;99800.72;;;7.96;100.00
19576;BME280;41589;51.196;7.074;2023-04-09T06:15:33;99789.03;;;8.21;100.00
19576;BME280;41589;51.196;7.074;2023-04-09T06:20:33;99788.44;;;8.53;100.00
19576;BME280;41589;51.196;7.074;2023-04-09T06:25:35;99784.16;;;8.84;100.00
19576;BME280;41589;51.196;7.074;2023-04-09T06:30:35;99794.34;;;8.94;100.00
19576;BME280;41589;51.196;7.074;2023-04-09T06:35:36;99799.28;;;9.23;100.00
19576;BME280;41589;51.196;7.074;2023-04-09T06:40:37;99801.94;;;9.30;100.00
19576;BME280;41589;51.196;7.074;2023-04-09T06:45:38;99804.22;;;9.68;100.00
19576;BME280;41589;51.196;7.074;2023-04-09T06:50:38;99797.53;;;9.78;100.00
19576;BME280;41589;51.196;7.074;2023-04-09T06:55:38;99795.03;;;10.12;100.00
19576;BME280;41589;51.196;7.074;2023-04-09T07:00:39;99807.88;;;10.13;100.00
19576;BME280;41589;51.196;7.074;2023-04-09T07:05:39;99809.41;;;10.31;100.00
19576;BME280;41589;51.196;7.074;2023-04-09T07:10:40;99806.69;;;10.69;100.00
19576;BME280;41589;51.196;7.074;2023-04-09T07:15:40;99818.78;;;10.95;100.00
19576;BME280;41589;51.196;7.074;2023-04-09T07:20:41;99816.09;;;11.17;100.00
19576;BME280;41589;51.196;7.074;2023-04-09T07:25:41;99820.84;;;11.58;100.00
19576;BME280;41589;51.196;7.074;2023-04-09T07:30:43;99822.88;;;11.57;100.00
19576;BME280;41589;51.196;7.074;2023-04-09T07:35:45;99817.03;;;11.99;100.00
19576;BME280;41589;51.196;7.074;2023-04-09T07:40:46;99821.31;;;12.38;100.00
19576;BME280;41589;51.196;7.074;2023-04-09T07:45:49;99826.00;;;12.54;100.00
19576;BME280;41589;51.196;7.074;2023-04-09T07:50:52;99823.41;;;12.69;99.23
19576;BME280;41589;51.196;7.074;2023-04-09T07:55:53;99820.72;;;12.87;99.25
19576;BME280;41589;51.196;7.074;2023-04-09T08:00:54;99826.25;;;13.22;98.59
19576;BME280;41589;51.196;7.074;2023-04-09T08:05:55;99827.94;;;13.59;99.43
19576;BME280;41589;51.196;7.074;2023-04-09T08:10:56;99829.97;;;14.08;99.96
19576;BME280;41589;51.196;7.074;2023-04-09T08:15:59;99833.91;;;14.29;96.66
19576;BME280;41589;51.196;7.074;2023-04-09T08:21:03;99809.84;;;14.52;97.32
19576;BME280;41589;51.196;7.074;2023-04-09T08:26:04;99810.44;;;14.56;89.79
19576;BME280;41589;51.196;7.074;2023-04-09T08:31:08;99813.13;;;14.60;93.14
19576;BME280;41589;51.196;7.074;2023-04-09T08:36:08;99819.25;;;14.86;88.55
19576;BME280;41589;51.196;7.074;2023-04-09T08:41:19;99819.25;;;14.77;87.27
19576;BME280;41589;51.196;7.074;2023-04-09T08:46:20;99825.88;;;14.92;81.92
19576;BME280;41589;51.196;7.074;2023-04-09T08:51:23;99822.31;;;15.15;81.92
19576;BME280;41589;51.196;7.074;2023-04-09T08:56:25;99822.44;;;15.30;80.67
19576;BME280;41589;51.196;7.074;2023-04-09T09:01:28;99825.72;;;15.28;78.86
19576;BME280;41589;51.196;7.074;2023-04-09T09:06:34;99828.38;;;15.41;77.61
19576;BME280;41589;51.196;7.074;2023-04-09T09:11:44;99822.13;;;15.61;75.58
19576;BME280;41589;51.196;7.074;2023-04-09T09:21:55;99828.09;;;15.96;70.03
19576;BME280;41589;51.196;7.074;2023-04-09T09:26:57;99820.69;;;16.37;72.11
19576;BME280;41589;51.196;7.074;2023-04-09T09:31:58;99814.91;;;16.32;69.94
19576;BME280;41589;51.196;7.074;2023-04-09T09:36:59;99816.66;;;15.81;66.49
19576;BME280;41589;51.196;7.074;2023-04-09T09:42:06;99814.44;;;16.09;72.34
19576;BME280;41589;51.196;7.074;2023-04-09T09:47:08;99807.75;;;15.98;68.38
19576;BME280;41589;51.196;7.074;2023-04-09T09:52:11;99807.41;;;16.58;70.54
19576;BME280;41589;51.196;7.074;2023-04-09T09:57:12;99806.59;;;16.43;64.16
19576;BME280;41589;51.196;7.074;2023-04-09T10:02:20;99802.03;;;16.22;69.56
19576;BME280;41589;51.196;7.074;2023-04-09T10:07:22;99802.47;;;16.68;65.83
19576;BME280;41589;51.196;7.074;2023-04-09T10:12:24;99796.13;;;16.64;64.74
19576;BME280;41589;51.196;7.074;2023-04-09T10:17:26;99799.25;;;16.51;62.96
19576;BME280;41589;51.196;7.074;2023-04-09T10:22:29;99790.22;;;16.91;63.67
19576;BME280;41589;51.196;7.074;2023-04-09T10:27:31;99775.31;;;16.82;60.97
19576;BME280;41589;51.196;7.074;2023-04-09T10:32:35;99774.53;;;16.81;61.75
19576;BME280;41589;51.196;7.074;2023-04-09T10:37:47;99777.94;;;16.70;59.77
19576;BME280;41589;51.196;7.074;2023-04-09T10:42:49;99775.31;;;16.82;63.54
19576;BME280;41589;51.196;7.074;2023-04-09T10:47:53;99784.25;;;17.39;57.54
19576;BME280;41589;51.196;7.074;2023-04-09T10:52:57;99777.34;;;17.11;59.30
19576;BME280;41589;51.196;7.074;2023-04-09T10:57:59;99771.25;;;16.59;54.53
19576;BME280;41589;51.196;7.074;2023-04-09T11:03:25;99772.75;;;16.98;60.67
19576;BME280;41589;51.196;7.074;2023-04-09T11:08:33;99769.22;;;16.89;54.44
19576;BME280;41589;51.196;7.074;2023-04-09T11:13:40;99758.22;;;16.96;56.75
19576;BME280;41589;51.196;7.074;2023-04-09T11:18:44;99764.47;;;17.15;56.29
19576;BME280;41589;51.196;7.074;2023-04-09T11:23:54;99765.88;;;16.90;55.09
19576;BME280;41589;51.196;7.074;2023-04-09T11:29:08;99761.75;;;16.62;52.42
19576;BME280;41589;51.196;7.074;2023-04-09T11:34:10;99758.91;;;16.47;54.20
19576;BME280;41589;51.196;7.074;2023-04-09T11:39:13;99748.56;;;16.20;52.57
19576;BME280;41589;51.196;7.074;2023-04-09T11:44:34;99752.47;;;16.08;53.13
19576;BME280;41589;51.196;7.074;2023-04-09T11:49:40;99752.22;;;16.35;55.11
19576;BME280;41589;51.196;7.074;2023-04-09T11:54:48;99745.34;;;16.27;54.61
19576;BME280;41589;51.196;7.074;2023-04-09T11:59:50;99750.16;;;16.36;54.83
19576;BME280;41589;51.196;7.074;2023-04-09T12:04:54;99742.91;;;16.35;54.81
19576;BME280;41589;51.196;7.074;2023-04-09T12:09:55;99746.69;;;16.17;52.95
19576;BME280;41589;51.196;7.074;2023-04-09T12:14:57;99744.75;;;16.23;54.59
19576;BME280;41589;51.196;7.074;2023-04-09T12:19:58;99751.22;;;16.24;53.49
19576;BME280;41589;51.196;7.074;2023-04-09T12:25:02;99754.28;;;16.35;53.86
19576;BME280;41589;51.196;7.074;2023-04-09T12:30:03;99750.47;;;16.38;52.38
19576;BME280;41589;51.196;7.074;2023-04-09T12:35:04;99749.47;;;16.26;52.04
19576;BME280;41589;51.196;7.074;2023-04-09T12:40:18;99749.53;;;16.17;50.74
19576;BME280;41589;51.196;7.074;2023-04-09T12:45:28;99733.50;;;16.29;51.20
19576;BME280;41589;51.196;7.074;2023-04-09T12:50:29;99723.31;;;16.52;51.87
19576;BME280;41589;51.196;7.074;2023-04-09T12:55:35;99723.41;;;17.01;50.38
19576;BME280;41589;51.196;7.074;2023-04-09T13:00:36;99729.88;;;17.37;49.13
19576;BME280;41589;51.196;7.074;2023-04-09T13:05:39;99715.72;;;17.78;47.81
19576;BME280;41589;51.196;7.074;2023-04-09T13:10:44;99710.16;;;17.89;49.40
19576;BME280;41589;51.196;7.074;2023-04-09T13:15:45;99698.91;;;18.00;47.04
19576;BME280;41589;51.196;7.074;2023-04-09T13:20:49;99703.78;;;18.20;45.00
19576;BME280;41589;51.196;7.074;2023-04-09T13:25:49;99711.97;;;18.33;44.98
19576;BME280;41589;51.196;7.074;2023-04-09T13:30:52;99695.06;;;18.29;44.16
19576;BME280;41589;51.196;7.074;2023-04-09T13:35:53;99702.13;;;18.60;45.36
19576;BME280;41589;51.196;7.074;2023-04-09T13:40:53;99702.41;;;18.62;42.81
19576;BME280;41589;51.196;7.074;2023-04-09T13:45:54;99692.09;;;18.64;42.15
19576;BME280;41589;51.196;7.074;2023-04-09T13:50:55;99677.50;;;18.94;43.01
19576;BME280;41589;51.196;7.074;2023-04-09T13:55:58;99681.78;;;19.10;41.70
19576;BME280;41589;51.196;7.074;2023-04-09T14:01:05;99681.81;;;19.15;40.55
19576;BME280;41589;51.196;7.074;2023-04-09T14:06:07;99683.41;;;19.22;40.64
19576;BME280;41589;51.196;7.074;2023-04-09T14:11:13;99684.66;;;19.47;40.07
19576;BME280;41589;51.196;7.074;2023-04-09T14:16:15;99690.16;;;19.24;38.61
19576;BME280;41589;51.196;7.074;2023-04-09T14:21:16;99677.56;;;18.99;38.24
19576;BME280;41589;51.196;7.074;2023-04-09T14:26:20;99664.78;;;18.89;38.27
19576;BME280;41589;51.196;7.074;2023-04-09T14:31:57;99653.31;;;18.78;39.67
19576;BME280;41589;51.196;7.074;2023-04-09T14:37:07;99656.16;;;18.78;38.22
19576;BME280;41589;51.196;7.074;2023-04-09T14:42:08;99646.16;;;18.62;38.02
19576;BME280;41589;51.196;7.074;2023-04-09T14:47:09;99633.47;;;18.95;37.79
19576;BME280;41589;51.196;7.074;2023-04-09T14:52:09;99637.94;;;19.07;37.20
19576;BME280;41589;51.196;7.074;2023-04-09T14:57:20;99649.81;;;19.00;37.13
19576;BME280;41589;51.196;7.074;2023-04-09T15:03:16;99645.19;;;18.71;36.69
19576;BME280;41589;51.196;7.074;2023-04-09T15:08:17;99641.25;;;18.63;35.88
19576;BME280;41589;51.196;7.074;2023-04-09T15:13:18;99646.78;;;18.20;35.83
19576;BME280;41589;51.196;7.074;2023-04-09T15:18:24;99652.38;;;17.83;36.24
19576;BME280;41589;51.196;7.074;2023-04-09T15:23:34;99645.53;;;17.54;36.70
19576;BME280;41589;51.196;7.074;2023-04-09T15:28:37;99651.38;;;17.45;37.28
19576;BME280;41589;51.196;7.074;2023-04-09T15:33:41;99645.91;;;17.07;37.33
19576;BME280;41589;51.196;7.074;2023-04-09T15:38:55;99660.31;;;16.83;38.08
19576;BME280;41589;51.196;7.074;2023-04-09T15:44:03;99670.13;;;16.52;37.87
19576;BME280;41589;51.196;7.074;2023-04-09T15:49:04;99660.44;;;16.29;38.32
19576;BME280;41589;51.196;7.074;2023-04-09T15:54:05;99660.63;;;16.26;38.56
19576;BME280;41589;51.196;7.074;2023-04-09T15:59:13;99648.66;;;16.22;38.13
19576;BME280;41589;51.196;7.074;2023-04-09T16:04:37;99651.50;;;16.22;37.84
19576;BME280;41589;51.196;7.074;2023-04-09T16:09:41;99655.13;;;16.07;38.02
19576;BME280;41589;51.196;7.074;2023-04-09T16:14:41;99651.59;;;15.98;38.54
19576;BME280;41589;51.196;7.074;2023-04-09T16:19:49;99657.16;;;15.92;38.59
19576;BME280;41589;51.196;7.074;2023-04-09T16:24:50;99652.09;;;16.11;39.18
19576;BME280;41589;51.196;7.074;2023-04-09T16:29:53;99647.50;;;16.28;38.52
19576;BME280;41589;51.196;7.074;2023-04-09T16:34:57;99634.09;;;16.14;38.03
19576;BME280;41589;51.196;7.074;2023-04-09T16:40:10;99629.47;;;16.02;38.12
19576;BME280;41589;51.196;7.074;2023-04-09T16:45:29;99634.16;;;15.90;38.52
19576;BME280;41589;51.196;7.074;2023-04-09T16:50:45;99621.75;;;15.64;38.53
19576;BME280;41589;51.196;7.074;2023-04-09T16:55:58;99622.75;;;15.37;38.07
19576;BME280;41589;51.196;7.074;2023-04-09T17:01:14;99608.88;;;15.15;38.11
19576;BME280;41589;51.196;7.074;2023-04-09T17:06:45;99597.69;;;14.87;37.97
19576;BME280;41589;51.196;7.074;2023-04-09T17:12:21;99594.94;;;14.78;38.67
19576;BME280;41589;51.196;7.074;2023-04-09T17:17:50;99580.34;;;14.70;38.53
19576;BME280;41589;51.196;7.074;2023-04-09T17:23:29;99593.25;;;14.71;39.04
19576;BME280;41589;51.196;7.074;2023-04-09T17:28:43;99602.72;;;14.59;39.54
19576;BME280;41589;51.196;7.074;2023-04-09T17:34:10;99619.59;;;14.44;39.47
19576;BME280;41589;51.196;7.074;2023-04-09T17:39:21;99609.72;;;14.40;39.79
19576;BME280;41589;51.196;7.074;2023-04-09T17:45:04;99604.25;;;14.27;39.56
19576;BME280;41589;51.196;7.074;2023-04-09T17:50:15;99630.53;;;14.19;39.76
19576;BME280;41589;51.196;7.074;2023-04-09T17:55:39;99612.31;;;14.10;40.28
19576;BME280;41589;51.196;7.074;2023-04-09T18:01:07;99608.53;;;14.04;40.17
19576;BME280;41589;51.196;7.074;2023-04-09T18:06:23;99611.72;;;13.88;40.17
19576;BME280;41589;51.196;7.074;2023-04-09T18:17:06;99605.78;;;13.68;40.32
19576;BME280;41589;51.196;7.074;2023-04-09T18:27:59;99620.19;;;13.51;40.48
19576;BME280;41589;51.196;7.074;2023-04-09T18:33:00;99626.19;;;13.44;40.93
19576;BME280;41589;51.196;7.074;2023-04-09T18:38:00;99610.47;;;13.43;40.65
19576;BME280;41589;51.196;7.074;2023-04-09T18:43:04;99621.13;;;13.30;40.86
19576;BME280;41589;51.196;7.074;2023-04-09T18:48:07;99623.03;;;13.24;40.93
19576;BME280;41589;51.196;7.074;2023-04-09T18:53:08;99620.50;;;13.17;41.19
19576;BME280;41589;51.196;7.074;2023-04-09T18:58:10;99634.28;;;13.06;41.12
19576;BME280;41589;51.196;7.074;2023-04-09T19:03:17;99625.19;;;13.01;41.61
19576;BME280;41589;51.196;7.074;2023-04-09T19:08:18;99634.75;;;12.95;41.79
19576;BME280;41589;51.196;7.074;2023-04-09T19:13:19;99628.91;;;12.80;41.75
19576;BME280;41589;51.196;7.074;2023-04-09T19:18:19;99634.38;;;12.75;41.87
19576;BME280;41589;51.196;7.074;2023-04-09T19:23:23;99630.72;;;12.65;41.85
19576;BME280;41589;51.196;7.074;2023-04-09T19:28:27;99632.56;;;12.50;41.86
19576;BME280;41589;51.196;7.074;2023-04-09T19:33:28;99633.59;;;12.43;41.87
19576;BME280;41589;51.196;7.074;2023-04-09T19:38:29;99614.09;;;12.36;42.50
19576;BME280;41589;51.196;7.074;2023-04-09T19:43:29;99622.38;;;12.30;42.47
19576;BME280;41589;51.196;7.074;2023-04-09T19:48:31;99628.03;;;12.30;42.56
19576;BME280;41589;51.196;7.074;2023-04-09T19:53:31;99633.94;;;12.23;42.53
19576;BME280;41589;51.196;7.074;2023-04-09T19:58:32;99640.78;;;12.13;42.76
19576;BME280;41589;51.196;7.074;2023-04-09T20:03:33;99633.25;;;12.10;42.76
19576;BME280;41589;51.196;7.074;2023-04-09T20:08:34;99636.00;;;12.01;42.76
19576;BME280;41589;51.196;7.074;2023-04-09T20:13:35;99642.28;;;12.05;43.14
19576;BME280;41589;51.196;7.074;2023-04-09T20:18:36;99627.59;;;12.10;43.14
19576;BME280;41589;51.196;7.074;2023-04-09T20:23:39;99630.84;;;11.99;43.13
19576;BME280;41589;51.196;7.074;2023-04-09T20:28:40;99621.38;;;11.93;43.11
19576;BME280;41589;51.196;7.074;2023-04-09T20:33:44;99620.53;;;11.83;43.32
19576;BME280;41589;51.196;7.074;2023-04-09T20:38:48;99613.47;;;11.79;43.43
19576;BME280;41589;51.196;7.074;2023-04-09T20:43:48;99626.25;;;11.71;43.23
19576;BME280;41589;51.196;7.074;2023-04-09T20:48:49;99614.31;;;11.67;43.79
19576;BME280;41589;51.196;7.074;2023-04-09T20:53:50;99617.91;;;11.67;43.86
19576;BME280;41589;51.196;7.074;2023-04-09T20:58:51;99609.84;;;11.56;43.69
19576;BME280;41589;51.196;7.074;2023-04-09T21:03:52;99604.69;;;11.55;43.84
19576;BME280;41589;51.196;7.074;2023-04-09T21:08:52;99599.94;;;11.52;43.78
19576;BME280;41589;51.196;7.074;2023-04-09T21:13:54;99602.44;;;11.50;43.87
19576;BME280;41589;51.196;7.074;2023-04-09T21:18:55;99605.56;;;11.52;43.78
19576;BME280;41589;51.196;7.074;2023-04-09T21:23:55;99598.34;;;11.51;43.88
19576;BME280;41589;51.196;7.074;2023-04-09T21:28:56;99592.25;;;11.52;43.79
19576;BME280;41589;51.196;7.074;2023-04-09T21:33:56;99586.94;;;11.54;43.81
19576;BME280;41589;51.196;7.074;2023-04-09T21:38:56;99580.72;;;11.38;43.93
19576;BME280;41589;51.196;7.074;2023-04-09T21:43:57;99593.56;;;11.39;43.83
19576;BME280;41589;51.196;7.074;2023-04-09T21:48:57;99599.34;;;11.35;44.31
19576;BME280;41589;51.196;7.074;2023-04-09T21:54:04;99588.50;;;11.34;44.25
19576;BME280;41589;51.196;7.074;2023-04-09T21:59:05;99601.03;;;11.33;44.11
19576;BME280;41589;51.196;7.074;2023-04-09T22:04:05;99588.50;;;11.34;44.05
19576;BME280;41589;51.196;7.074;2023-04-09T22:09:06;99583.22;;;11.36;44.13
19576;BME280;41589;51.196;7.074;2023-04-09T22:14:06;99575.34;;;11.31;44.31
19576;BME280;41589;51.196;7.074;2023-04-09T22:19:06;99577.28;;;11.21;44.35
19576;BME280;41589;51.196;7.074;2023-04-09T22:24:07;99572.78;;;11.23;44.23
19576;BME280;41589;51.196;7.074;2023-04-09T22:29:08;99587.41;;;11.18;44.30
19576;BME280;41589;51.196;7.074;2023-04-09T22:34:08;99594.09;;;11.24;44.64
19576;BME280;41589;51.196;7.074;2023-04-09T22:39:08;99595.75;;;11.22;44.40
19576;BME280;41589;51.196;7.074;2023-04-09T22:44:09;99605.34;;;11.24;44.57
19576;BME280;41589;51.196;7.074;2023-04-09T22:49:10;99602.88;;;11.26;44.68
19576;BME280;41589;51.196;7.074;2023-04-09T22:54:10;99604.91;;;11.26;44.75
19576;BME280;41589;51.196;7.074;2023-04-09T22:59:10;99613.91;;;11.21;44.83
19576;BME280;41589;51.196;7.074;2023-04-09T23:04:11;99609.53;;;11.20;45.03
19576;BME280;41589;51.196;7.074;2023-04-09T23:09:11;99620.00;;;11.19;44.85
19576;BME280;41589;51.196;7.074;2023-04-09T23:14:11;99615.25;;;11.16;44.97
19576;BME280;41589;51.196;7.074;2023-04-09T23:19:12;99594.75;;;11.16;44.90
19576;BME280;41589;51.196;7.074;2023-04-09T23:24:12;99600.94;;;11.11;45.14
19576;BME280;41589;51.196;7.074;2023-04-09T23:29:12;99608.09;;;11.03;45.18
19576;BME280;41589;51.196;7.074;2023-04-09T23:34:13;99593.88;;;11.06;45.57
19576;BME280;41589;51.196;7.074;2023-04-09T23:39:13;99594.66;;;11.07;45.30
19576;BME280;41589;51.196;7.074;2023-04-09T23:44:13;99583.16;;;11.01;45.39
19576;BME280;41589;51.196;7.074;2023-04-09T23:49:14;99587.69;;;10.98;45.37
19576;BME280;41589;51.196;7.074;2023-04-09T23:54:15;99582.84;;;10.99;45.62
19576;BME280;41589;51.196;7.074;2023-04-09T23:59:15;99586.56;;;10.96;45.68
